sensor_id;sensor_type;location;lat;lon;timestamp;temperature;humidity
71839;SHT31;59687;37.520;15.068;2022-09-28T00:01:21;19.20;67.46
71839;SHT31;59687;37.520;15.068;2022-09-28T00:03:50;19.14;67.82
71839;SHT31;59687;37.520;15.068;2022-09-28T00:06:20;19.09;68.19
71839;SHT31;59687;37.520;15.068;2022-09-28T00:08:48;19.09;68.41
71839;SHT31;59687;37.520;15.068;2022-09-28T00:11:19;19.12;68.48
71839;SHT31;59687;37.520;15.068;2022-09-28T00:13:51;19.24;68.27
71839;SHT31;59687;37.520;15.068;2022-09-28T00:16:20;19.31;67.84
71839;SHT31;59687;37.520;15.068;2022-09-28T00:18:49;19.38;67.72
71839;SHT31;59687;37.520;15.068;2022-09-28T00:21:22;19.32;68.02
71839;SHT31;59687;37.520;15.068;2022-09-28T00:23:55;19.21;68.56
71839;SHT31;59687;37.520;15.068;2022-09-28T00:26:49;19.16;68.90
71839;SHT31;59687;37.520;15.068;2022-09-28T00:29:25;19.10;69.07
71839;SHT31;59687;37.520;15.068;2022-09-28T00:32:01;19.07;69.21
71839;SHT31;59687;37.520;15.068;2022-09-28T00:34:34;19.03;69.37
71839;SHT31;59687;37.520;15.068;2022-09-28T00:37:04;19.03;69.56
71839;SHT31;59687;37.520;15.068;2022-09-28T00:39:32;18.98;69.76
71839;SHT31;59687;37.520;15.068;2022-09-28T00:42:12;18.91;69.86
71839;SHT31;59687;37.520;15.068;2022-09-28T00:47:24;18.91;69.44
71839;SHT31;59687;37.520;15.068;2022-09-28T00:50:03;19.00;69.05
71839;SHT31;59687;37.520;15.068;2022-09-28T00:52:38;19.03;69.09
71839;SHT31;59687;37.520;15.068;2022-09-28T00:55:10;19.02;68.99
71839;SHT31;59687;37.520;15.068;2022-09-28T00:57:45;19.07;68.94
71839;SHT31;59687;37.520;15.068;2022-09-28T01:00:14;18.99;69.14
71839;SHT31;59687;37.520;15.068;2022-09-28T01:02:42;18.93;69.35
71839;SHT31;59687;37.520;15.068;2022-09-28T01:05:10;18.86;69.15
71839;SHT31;59687;37.520;15.068;2022-09-28T01:07:39;18.82;69.32
71839;SHT31;59687;37.520;15.068;2022-09-28T01:10:07;18.79;69.11
71839;SHT31;59687;37.520;15.068;2022-09-28T01:12:34;18.78;69.07
71839;SHT31;59687;37.520;15.068;2022-09-28T01:15:02;18.76;69.31
71839;SHT31;59687;37.520;15.068;2022-09-28T01:17:43;18.85;69.14
71839;SHT31;59687;37.520;15.068;2022-09-28T01:32:31;18.79;69.30
71839;SHT31;59687;37.520;15.068;2022-09-28T01:35:10;18.76;69.63
71839;SHT31;59687;37.520;15.068;2022-09-28T01:38:06;18.78;69.50
71839;SHT31;59687;37.520;15.068;2022-09-28T01:40:34;18.78;69.48
71839;SHT31;59687;37.520;15.068;2022-09-28T01:43:08;18.73;69.49
71839;SHT31;59687;37.520;15.068;2022-09-28T01:45:43;18.71;69.44
71839;SHT31;59687;37.520;15.068;2022-09-28T01:48:16;18.69;69.52
71839;SHT31;59687;37.520;15.068;2022-09-28T01:50:47;18.71;69.66
71839;SHT31;59687;37.520;15.068;2022-09-28T01:53:22;18.76;69.41
71839;SHT31;59687;37.520;15.068;2022-09-28T01:55:58;18.82;69.00
71839;SHT31;59687;37.520;15.068;2022-09-28T01:58:27;18.86;68.76
71839;SHT31;59687;37.520;15.068;2022-09-28T02:01:00;18.95;68.56
71839;SHT31;59687;37.520;15.068;2022-09-28T02:04:13;18.91;68.76
71839;SHT31;59687;37.520;15.068;2022-09-28T02:06:59;18.82;68.98
71839;SHT31;59687;37.520;15.068;2022-09-28T02:09:43;18.75;69.02
71839;SHT31;59687;37.520;15.068;2022-09-28T02:13:34;18.71;69.07
71839;SHT31;59687;37.520;15.068;2022-09-28T02:15:33;18.65;69.18
71839;SHT31;59687;37.520;15.068;2022-09-28T02:18:01;18.58;69.19
71839;SHT31;59687;37.520;15.068;2022-09-28T02:20:30;18.54;69.17
71839;SHT31;59687;37.520;15.068;2022-09-28T02:22:58;18.50;68.81
71839;SHT31;59687;37.520;15.068;2022-09-28T02:25:43;18.47;68.47
71839;SHT31;59687;37.520;15.068;2022-09-28T02:28:13;18.47;68.86
71839;SHT31;59687;37.520;15.068;2022-09-28T02:30:42;18.47;68.90
71839;SHT31;59687;37.520;15.068;2022-09-28T02:33:19;18.44;69.05
71839;SHT31;59687;37.520;15.068;2022-09-28T02:35:47;18.41;69.37
71839;SHT31;59687;37.520;15.068;2022-09-28T02:38:16;18.40;69.24
71839;SHT31;59687;37.520;15.068;2022-09-28T02:40:49;18.40;69.24
71839;SHT31;59687;37.520;15.068;2022-09-28T02:43:27;18.37;69.24
71839;SHT31;59687;37.520;15.068;2022-09-28T02:45:58;18.38;68.85
71839;SHT31;59687;37.520;15.068;2022-09-28T02:48:55;18.43;68.65
71839;SHT31;59687;37.520;15.068;2022-09-28T03:00:44;18.23;68.26
71839;SHT31;59687;37.520;15.068;2022-09-28T03:06:02;18.29;67.33
71839;SHT31;59687;37.520;15.068;2022-09-28T03:11:21;18.40;66.53
71839;SHT31;59687;37.520;15.068;2022-09-28T03:13:50;18.37;66.79
71839;SHT31;59687;37.520;15.068;2022-09-28T03:16:24;18.38;66.77
71839;SHT31;59687;37.520;15.068;2022-09-28T03:18:53;18.41;66.61
71839;SHT31;59687;37.520;15.068;2022-09-28T03:21:21;18.41;66.51
71839;SHT31;59687;37.520;15.068;2022-09-28T03:23:48;18.43;66.54
71839;SHT31;59687;37.520;15.068;2022-09-28T03:26:17;18.44;66.62
71839;SHT31;59687;37.520;15.068;2022-09-28T03:28:46;18.45;66.59
71839;SHT31;59687;37.520;15.068;2022-09-28T03:31:23;18.43;66.96
71839;SHT31;59687;37.520;15.068;2022-09-28T03:33:50;18.40;66.98
71839;SHT31;59687;37.520;15.068;2022-09-28T03:36:17;18.36;67.24
71839;SHT31;59687;37.520;15.068;2022-09-28T03:38:45;18.32;67.52
71839;SHT31;59687;37.520;15.068;2022-09-28T03:41:12;18.34;67.47
71839;SHT31;59687;37.520;15.068;2022-09-28T03:43:41;18.44;67.33
71839;SHT31;59687;37.520;15.068;2022-09-28T03:46:08;18.44;67.44
71839;SHT31;59687;37.520;15.068;2022-09-28T03:48:43;18.37;67.82
71839;SHT31;59687;37.520;15.068;2022-09-28T03:51:12;18.32;67.82
71839;SHT31;59687;37.520;15.068;2022-09-28T03:53:40;18.32;67.99
71839;SHT31;59687;37.520;15.068;2022-09-28T03:56:12;18.32;68.08
71839;SHT31;59687;37.520;15.068;2022-09-28T03:58:41;18.36;67.99
71839;SHT31;59687;37.520;15.068;2022-09-28T04:01:11;18.32;68.14
71839;SHT31;59687;37.520;15.068;2022-09-28T04:03:43;18.18;68.49
71839;SHT31;59687;37.520;15.068;2022-09-28T04:06:12;18.20;68.45
71839;SHT31;59687;37.520;15.068;2022-09-28T04:08:39;18.16;68.54
71839;SHT31;59687;37.520;15.068;2022-09-28T04:11:07;18.16;68.63
71839;SHT31;59687;37.520;15.068;2022-09-28T04:13:36;18.10;68.71
71839;SHT31;59687;37.520;15.068;2022-09-28T04:16:06;18.02;69.24
71839;SHT31;59687;37.520;15.068;2022-09-28T04:18:34;17.91;69.45
71839;SHT31;59687;37.520;15.068;2022-09-28T04:21:14;17.77;70.08
71839;SHT31;59687;37.520;15.068;2022-09-28T04:23:45;17.70;70.12
71839;SHT31;59687;37.520;15.068;2022-09-28T04:26:24;17.68;70.04
71839;SHT31;59687;37.520;15.068;2022-09-28T04:28:51;17.70;70.12
71839;SHT31;59687;37.520;15.068;2022-09-28T04:31:43;17.79;69.78
71839;SHT31;59687;37.520;15.068;2022-09-28T04:34:16;17.78;69.62
71839;SHT31;59687;37.520;15.068;2022-09-28T04:36:44;17.81;69.62
71839;SHT31;59687;37.520;15.068;2022-09-28T04:39:12;17.78;69.88
71839;SHT31;59687;37.520;15.068;2022-09-28T04:41:42;17.77;69.72
71839;SHT31;59687;37.520;15.068;2022-09-28T04:44:09;17.79;69.65
71839;SHT31;59687;37.520;15.068;2022-09-28T04:46:36;17.89;69.23
71839;SHT31;59687;37.520;15.068;2022-09-28T04:49:27;17.93;69.12
71839;SHT31;59687;37.520;15.068;2022-09-28T04:51:57;17.96;69.09
71839;SHT31;59687;37.520;15.068;2022-09-28T04:54:24;18.03;68.72
71839;SHT31;59687;37.520;15.068;2022-09-28T04:56:52;18.03;68.97
71839;SHT31;59687;37.520;15.068;2022-09-28T04:59:19;18.07;69.08
71839;SHT31;59687;37.520;15.068;2022-09-28T05:01:47;18.12;69.22
71839;SHT31;59687;37.520;15.068;2022-09-28T05:04:24;18.23;69.03
71839;SHT31;59687;37.520;15.068;2022-09-28T05:07:11;18.50;68.27
71839;SHT31;59687;37.520;15.068;2022-09-28T05:09:38;18.73;67.84
71839;SHT31;59687;37.520;15.068;2022-09-28T05:12:07;19.06;66.85
71839;SHT31;59687;37.520;15.068;2022-09-28T05:14:36;19.40;65.87
71839;SHT31;59687;37.520;15.068;2022-09-28T05:17:05;19.73;64.79
71839;SHT31;59687;37.520;15.068;2022-09-28T05:19:39;20.06;63.75
71839;SHT31;59687;37.520;15.068;2022-09-28T05:22:11;20.38;62.82
71839;SHT31;59687;37.520;15.068;2022-09-28T05:24:44;20.72;61.94
71839;SHT31;59687;37.520;15.068;2022-09-28T05:27:14;21.07;60.34
71839;SHT31;59687;37.520;15.068;2022-09-28T05:29:44;21.21;60.02
71839;SHT31;59687;37.520;15.068;2022-09-28T05:32:41;21.69;58.95
71839;SHT31;59687;37.520;15.068;2022-09-28T05:35:17;21.99;57.90
71839;SHT31;59687;37.520;15.068;2022-09-28T05:37:46;22.27;57.08
71839;SHT31;59687;37.520;15.068;2022-09-28T05:40:14;22.55;55.89
71839;SHT31;59687;37.520;15.068;2022-09-28T05:42:43;22.89;54.70
71839;SHT31;59687;37.520;15.068;2022-09-28T05:45:11;23.06;53.76
71839;SHT31;59687;37.520;15.068;2022-09-28T05:47:42;22.90;54.15
71839;SHT31;59687;37.520;15.068;2022-09-28T05:50:18;22.89;53.82
71839;SHT31;59687;37.520;15.068;2022-09-28T05:52:45;23.08;54.38
71839;SHT31;59687;37.520;15.068;2022-09-28T05:55:13;23.41;53.55
71839;SHT31;59687;37.520;15.068;2022-09-28T05:57:40;23.86;53.46
71839;SHT31;59687;37.520;15.068;2022-09-28T06:00:08;23.99;52.33
71839;SHT31;59687;37.520;15.068;2022-09-28T06:03:05;24.55;51.78
71839;SHT31;59687;37.520;15.068;2022-09-28T06:05:35;24.89;50.29
71839;SHT31;59687;37.520;15.068;2022-09-28T06:08:05;25.11;50.30
71839;SHT31;59687;37.520;15.068;2022-09-28T06:10:34;25.56;49.33
71839;SHT31;59687;37.520;15.068;2022-09-28T06:13:02;25.94;48.75
71839;SHT31;59687;37.520;15.068;2022-09-28T06:15:33;26.14;47.20
71839;SHT31;59687;37.520;15.068;2022-09-28T06:18:06;26.34;47.35
71839;SHT31;59687;37.520;15.068;2022-09-28T06:20:43;26.75;46.70
71839;SHT31;59687;37.520;15.068;2022-09-28T06:23:16;27.14;45.95
71839;SHT31;59687;37.520;15.068;2022-09-28T06:25:45;27.43;45.62
71839;SHT31;59687;37.520;15.068;2022-09-28T06:28:14;27.79;44.41
71839;SHT31;59687;37.520;15.068;2022-09-28T06:30:43;27.83;43.89
71839;SHT31;59687;37.520;15.068;2022-09-28T06:33:14;28.03;44.15
71839;SHT31;59687;37.520;15.068;2022-09-28T06:35:42;28.27;43.74
71839;SHT31;59687;37.520;15.068;2022-09-28T06:38:10;28.49;42.95
71839;SHT31;59687;37.520;15.068;2022-09-28T06:40:37;28.62;42.68
71839;SHT31;59687;37.520;15.068;2022-09-28T06:43:10;29.00;42.39
71839;SHT31;59687;37.520;15.068;2022-09-28T06:45:58;29.32;41.42
71839;SHT31;59687;37.520;15.068;2022-09-28T06:48:35;29.58;40.94
71839;SHT31;59687;37.520;15.068;2022-09-28T06:51:03;29.84;39.93
71839;SHT31;59687;37.520;15.068;2022-09-28T06:53:34;29.87;39.44
71839;SHT31;59687;37.520;15.068;2022-09-28T06:56:16;30.08;39.16
71839;SHT31;59687;37.520;15.068;2022-09-28T06:58:47;30.35;38.43
71839;SHT31;59687;37.520;15.068;2022-09-28T07:01:14;30.53;38.47
71839;SHT31;59687;37.520;15.068;2022-09-28T07:04:05;30.56;37.65
71839;SHT31;59687;37.520;15.068;2022-09-28T07:06:51;30.31;38.12
71839;SHT31;59687;37.520;15.068;2022-09-28T07:09:38;30.40;38.42
71839;SHT31;59687;37.520;15.068;2022-09-28T07:12:15;30.66;37.86
71839;SHT31;59687;37.520;15.068;2022-09-28T07:14:50;30.70;37.42
71839;SHT31;59687;37.520;15.068;2022-09-28T07:17:25;30.95;37.63
71839;SHT31;59687;37.520;15.068;2022-09-28T07:19:55;30.69;37.13
71839;SHT31;59687;37.520;15.068;2022-09-28T07:22:27;31.18;36.71
71839;SHT31;59687;37.520;15.068;2022-09-28T07:25:05;30.97;36.68
71839;SHT31;59687;37.520;15.068;2022-09-28T07:27:57;30.94;37.39
71839;SHT31;59687;37.520;15.068;2022-09-28T07:30:55;31.02;37.57
71839;SHT31;59687;37.520;15.068;2022-09-28T07:33:49;29.21;40.04
71839;SHT31;59687;37.520;15.068;2022-09-28T07:36:43;27.76;42.93
71839;SHT31;59687;37.520;15.068;2022-09-28T07:39:10;27.04;45.05
71839;SHT31;59687;37.520;15.068;2022-09-28T07:41:38;26.73;45.32
71839;SHT31;59687;37.520;15.068;2022-09-28T07:44:06;27.21;45.25
71839;SHT31;59687;37.520;15.068;2022-09-28T07:46:35;27.96;44.36
71839;SHT31;59687;37.520;15.068;2022-09-28T07:49:35;28.72;43.31
71839;SHT31;59687;37.520;15.068;2022-09-28T07:52:33;28.07;43.29
71839;SHT31;59687;37.520;15.068;2022-09-28T07:55:09;27.80;43.93
71839;SHT31;59687;37.520;15.068;2022-09-28T07:57:57;28.11;44.32
71839;SHT31;59687;37.520;15.068;2022-09-28T08:00:57;28.55;43.36
71839;SHT31;59687;37.520;15.068;2022-09-28T08:03:27;28.91;42.36
71839;SHT31;59687;37.520;15.068;2022-09-28T08:05:59;29.29;41.90
71839;SHT31;59687;37.520;15.068;2022-09-28T08:08:27;28.86;41.78
71839;SHT31;59687;37.520;15.068;2022-09-28T08:10:57;29.00;41.79
71839;SHT31;59687;37.520;15.068;2022-09-28T08:13:47;28.39;42.35
71839;SHT31;59687;37.520;15.068;2022-09-28T08:16:32;28.25;43.33
71839;SHT31;59687;37.520;15.068;2022-09-28T08:19:11;28.91;41.56
71839;SHT31;59687;37.520;15.068;2022-09-28T08:21:38;28.81;41.45
71839;SHT31;59687;37.520;15.068;2022-09-28T08:24:14;28.46;42.93
71839;SHT31;59687;37.520;15.068;2022-09-28T08:26:43;29.15;41.67
71839;SHT31;59687;37.520;15.068;2022-09-28T08:29:13;28.66;41.19
71839;SHT31;59687;37.520;15.068;2022-09-28T08:31:50;28.80;41.22
71839;SHT31;59687;37.520;15.068;2022-09-28T08:34:39;29.70;39.80
71839;SHT31;59687;37.520;15.068;2022-09-28T08:37:24;30.22;38.98
71839;SHT31;59687;37.520;15.068;2022-09-28T08:40:17;31.10;37.69
71839;SHT31;59687;37.520;15.068;2022-09-28T08:46:47;30.87;36.83
71839;SHT31;59687;37.520;15.068;2022-09-28T08:49:38;32.14;35.53
71839;SHT31;59687;37.520;15.068;2022-09-28T08:52:32;33.38;34.46
71839;SHT31;59687;37.520;15.068;2022-09-28T08:55:33;33.10;34.59
71839;SHT31;59687;37.520;15.068;2022-09-28T09:00:47;34.80;32.62
71839;SHT31;59687;37.520;15.068;2022-09-28T09:03:28;36.16;29.53
71839;SHT31;59687;37.520;15.068;2022-09-28T09:09:24;34.05;32.36
71839;SHT31;59687;37.520;15.068;2022-09-28T09:15:22;32.08;35.77
71839;SHT31;59687;37.520;15.068;2022-09-28T09:20:46;31.07;36.85
71839;SHT31;59687;37.520;15.068;2022-09-28T09:26:18;30.79;38.21
71839;SHT31;59687;37.520;15.068;2022-09-28T09:41:05;33.52;34.71
71839;SHT31;59687;37.520;15.068;2022-09-28T09:44:36;34.63;32.09
71839;SHT31;59687;37.520;15.068;2022-09-28T09:47:32;34.82;31.72
71839;SHT31;59687;37.520;15.068;2022-09-28T09:50:28;33.14;33.84
71839;SHT31;59687;37.520;15.068;2022-09-28T09:53:30;34.82;32.22
71839;SHT31;59687;37.520;15.068;2022-09-28T09:56:09;34.60;31.70
71839;SHT31;59687;37.520;15.068;2022-09-28T09:59:02;37.00;29.49
71839;SHT31;59687;37.520;15.068;2022-09-28T10:01:39;38.62;27.28
71839;SHT31;59687;37.520;15.068;2022-09-28T10:04:22;39.82;26.63
71839;SHT31;59687;37.520;15.068;2022-09-28T10:07:04;40.78;25.80
71839;SHT31;59687;37.520;15.068;2022-09-28T10:09:41;42.76;23.90
71839;SHT31;59687;37.520;15.068;2022-09-28T10:12:29;40.97;23.59
71839;SHT31;59687;37.520;15.068;2022-09-28T10:15:02;38.32;24.99
71839;SHT31;59687;37.520;15.068;2022-09-28T10:17:45;37.82;25.49
71839;SHT31;59687;37.520;15.068;2022-09-28T10:20:34;39.09;25.00
71839;SHT31;59687;37.520;15.068;2022-09-28T10:23:32;38.06;25.50
71839;SHT31;59687;37.520;15.068;2022-09-28T10:26:08;37.00;26.46
71839;SHT31;59687;37.520;15.068;2022-09-28T10:28:52;36.94;26.86
71839;SHT31;59687;37.520;15.068;2022-09-28T10:31:48;35.67;28.46
71839;SHT31;59687;37.520;15.068;2022-09-28T10:34:28;34.46;29.83
71839;SHT31;59687;37.520;15.068;2022-09-28T10:37:07;36.04;28.03
71839;SHT31;59687;37.520;15.068;2022-09-28T10:39:55;37.62;26.14
71839;SHT31;59687;37.520;15.068;2022-09-28T10:42:31;36.66;27.37
71839;SHT31;59687;37.520;15.068;2022-09-28T10:45:20;37.66;27.20
71839;SHT31;59687;37.520;15.068;2022-09-28T10:47:49;39.77;23.75
71839;SHT31;59687;37.520;15.068;2022-09-28T10:50:25;37.84;26.04
71839;SHT31;59687;37.520;15.068;2022-09-28T10:53:19;36.69;27.90
71839;SHT31;59687;37.520;15.068;2022-09-28T10:56:04;36.18;28.43
71839;SHT31;59687;37.520;15.068;2022-09-28T10:58:38;36.20;27.57
71839;SHT31;59687;37.520;15.068;2022-09-28T11:01:22;35.00;28.60
71839;SHT31;59687;37.520;15.068;2022-09-28T11:04:01;36.80;27.30
71839;SHT31;59687;37.520;15.068;2022-09-28T11:06:39;37.15;27.18
71839;SHT31;59687;37.520;15.068;2022-09-28T11:09:28;38.86;25.15
71839;SHT31;59687;37.520;15.068;2022-09-28T11:11:59;41.61;22.39
71839;SHT31;59687;37.520;15.068;2022-09-28T11:14:33;40.10;24.09
71839;SHT31;59687;37.520;15.068;2022-09-28T11:19:57;33.94;30.82
71839;SHT31;59687;37.520;15.068;2022-09-28T11:22:40;32.74;32.94
71839;SHT31;59687;37.520;15.068;2022-09-28T11:33:30;28.45;41.45
71839;SHT31;59687;37.520;15.068;2022-09-28T11:36:22;27.90;41.90
71839;SHT31;59687;37.520;15.068;2022-09-28T11:44:47;29.56;38.67
71839;SHT31;59687;37.520;15.068;2022-09-28T11:50:51;33.24;31.95
71839;SHT31;59687;37.520;15.068;2022-09-28T11:53:31;34.80;29.82
71839;SHT31;59687;37.520;15.068;2022-09-28T11:58:48;35.35;29.00
71839;SHT31;59687;37.520;15.068;2022-09-28T12:01:27;35.67;28.90
71839;SHT31;59687;37.520;15.068;2022-09-28T12:04:28;34.97;29.12
71839;SHT31;59687;37.520;15.068;2022-09-28T12:07:10;34.74;30.11
71839;SHT31;59687;37.520;15.068;2022-09-28T12:10:07;33.87;31.43
71839;SHT31;59687;37.520;15.068;2022-09-28T12:13:01;32.00;34.62
71839;SHT31;59687;37.520;15.068;2022-09-28T12:15:39;34.10;31.59
71839;SHT31;59687;37.520;15.068;2022-09-28T12:18:29;35.96;29.44
71839;SHT31;59687;37.520;15.068;2022-09-28T12:23:43;35.97;28.84
71839;SHT31;59687;37.520;15.068;2022-09-28T12:26:30;34.90;30.33
71839;SHT31;59687;37.520;15.068;2022-09-28T12:29:01;36.88;26.54
71839;SHT31;59687;37.520;15.068;2022-09-28T12:31:52;39.25;23.08
71839;SHT31;59687;37.520;15.068;2022-09-28T12:34:23;39.04;23.06
71839;SHT31;59687;37.520;15.068;2022-09-28T12:40:01;40.25;22.34
71839;SHT31;59687;37.520;15.068;2022-09-28T12:42:56;36.12;26.81
71839;SHT31;59687;37.520;15.068;2022-09-28T12:45:55;34.90;28.17
71839;SHT31;59687;37.520;15.068;2022-09-28T12:51:59;30.39;33.62
71839;SHT31;59687;37.520;15.068;2022-09-28T13:01:40;32.28;31.45
71839;SHT31;59687;37.520;15.068;2022-09-28T13:12:28;31.39;32.74
71839;SHT31;59687;37.520;15.068;2022-09-28T13:20:42;28.89;37.41
71839;SHT31;59687;37.520;15.068;2022-09-28T13:23:29;28.74;38.57
71839;SHT31;59687;37.520;15.068;2022-09-28T13:29:00;29.24;38.20
71839;SHT31;59687;37.520;15.068;2022-09-28T13:31:31;30.45;36.46
71839;SHT31;59687;37.520;15.068;2022-09-28T13:34:00;32.59;33.10
71839;SHT31;59687;37.520;15.068;2022-09-28T13:38:59;33.70;31.52
71839;SHT31;59687;37.520;15.068;2022-09-28T13:41:39;34.57;30.36
71839;SHT31;59687;37.520;15.068;2022-09-28T13:44:26;35.66;29.04
71839;SHT31;59687;37.520;15.068;2022-09-28T13:47:41;33.63;31.25
71839;SHT31;59687;37.520;15.068;2022-09-28T13:50:41;31.95;34.10
71839;SHT31;59687;37.520;15.068;2022-09-28T13:53:56;30.79;35.91
71839;SHT31;59687;37.520;15.068;2022-09-28T14:04:24;31.14;32.91
71839;SHT31;59687;37.520;15.068;2022-09-28T14:07:56;32.42;30.91
71839;SHT31;59687;37.520;15.068;2022-09-28T14:12:48;32.60;30.48
71839;SHT31;59687;37.520;15.068;2022-09-28T14:18:26;34.62;29.03
71839;SHT31;59687;37.520;15.068;2022-09-28T14:20:59;33.65;29.25
71839;SHT31;59687;37.520;15.068;2022-09-28T14:24:07;35.13;28.54
71839;SHT31;59687;37.520;15.068;2022-09-28T14:31:46;35.58;26.70
71839;SHT31;59687;37.520;15.068;2022-09-28T14:34:29;34.15;28.35
71839;SHT31;59687;37.520;15.068;2022-09-28T14:36:58;32.84;30.19
71839;SHT31;59687;37.520;15.068;2022-09-28T14:39:45;30.79;36.29
71839;SHT31;59687;37.520;15.068;2022-09-28T14:42:31;30.84;37.32
71839;SHT31;59687;37.520;15.068;2022-09-28T14:47:50;32.04;35.37
71839;SHT31;59687;37.520;15.068;2022-09-28T14:50:29;32.49;34.67
71839;SHT31;59687;37.520;15.068;2022-09-28T14:53:02;32.45;34.48
71839;SHT31;59687;37.520;15.068;2022-09-28T14:55:41;32.18;35.00
71839;SHT31;59687;37.520;15.068;2022-09-28T14:58:17;30.98;36.81
71839;SHT31;59687;37.520;15.068;2022-09-28T15:00:45;28.98;41.60
71839;SHT31;59687;37.520;15.068;2022-09-28T15:03:13;27.67;43.59
71839;SHT31;59687;37.520;15.068;2022-09-28T15:05:45;28.29;44.07
71839;SHT31;59687;37.520;15.068;2022-09-28T15:08:18;28.46;43.77
71839;SHT31;59687;37.520;15.068;2022-09-28T15:10:48;28.21;43.59
71839;SHT31;59687;37.520;15.068;2022-09-28T15:13:33;27.87;44.50
71839;SHT31;59687;37.520;15.068;2022-09-28T15:16:06;28.31;43.68
71839;SHT31;59687;37.520;15.068;2022-09-28T15:21:14;28.34;43.84
71839;SHT31;59687;37.520;15.068;2022-09-28T15:23:43;27.96;44.15
71839;SHT31;59687;37.520;15.068;2022-09-28T15:26:46;28.22;43.61
71839;SHT31;59687;37.520;15.068;2022-09-28T15:29:17;28.24;44.42
71839;SHT31;59687;37.520;15.068;2022-09-28T15:31:47;27.96;45.78
71839;SHT31;59687;37.520;15.068;2022-09-28T15:34:32;28.31;44.90
71839;SHT31;59687;37.520;15.068;2022-09-28T15:37:31;27.92;46.47
71839;SHT31;59687;37.520;15.068;2022-09-28T15:40:11;27.79;47.50
71839;SHT31;59687;37.520;15.068;2022-09-28T15:42:41;27.52;47.89
71839;SHT31;59687;37.520;15.068;2022-09-28T15:47:42;27.01;49.76
71839;SHT31;59687;37.520;15.068;2022-09-28T15:50:27;26.70;50.34
71839;SHT31;59687;37.520;15.068;2022-09-28T15:53:05;26.27;52.32
71839;SHT31;59687;37.520;15.068;2022-09-28T15:55:36;26.41;52.51
71839;SHT31;59687;37.520;15.068;2022-09-28T15:58:14;26.63;51.34
71839;SHT31;59687;37.520;15.068;2022-09-28T16:00:48;26.46;52.41
71839;SHT31;59687;37.520;15.068;2022-09-28T16:03:21;26.04;52.29
71839;SHT31;59687;37.520;15.068;2022-09-28T16:05:51;25.77;52.73
71839;SHT31;59687;37.520;15.068;2022-09-28T16:08:46;25.73;53.35
71839;SHT31;59687;37.520;15.068;2022-09-28T16:11:27;25.48;56.36
71839;SHT31;59687;37.520;15.068;2022-09-28T16:19:02;25.31;57.83
71839;SHT31;59687;37.520;15.068;2022-09-28T16:24:02;24.75;60.80
71839;SHT31;59687;37.520;15.068;2022-09-28T16:26:32;24.55;61.49
71839;SHT31;59687;37.520;15.068;2022-09-28T16:29:07;24.42;61.57
71839;SHT31;59687;37.520;15.068;2022-09-28T16:31:35;24.32;62.19
71839;SHT31;59687;37.520;15.068;2022-09-28T16:36:42;24.13;62.13
71839;SHT31;59687;37.520;15.068;2022-09-28T16:39:12;24.00;62.46
71839;SHT31;59687;37.520;15.068;2022-09-28T16:41:53;23.93;62.93
71839;SHT31;59687;37.520;15.068;2022-09-28T16:44:26;23.83;63.82
71839;SHT31;59687;37.520;15.068;2022-09-28T16:46:59;23.69;64.56
71839;SHT31;59687;37.520;15.068;2022-09-28T16:49:28;23.58;64.61
71839;SHT31;59687;37.520;15.068;2022-09-28T16:51:57;23.44;65.16
71839;SHT31;59687;37.520;15.068;2022-09-28T16:54:25;23.34;66.30
71839;SHT31;59687;37.520;15.068;2022-09-28T16:57:12;23.23;67.30
71839;SHT31;59687;37.520;15.068;2022-09-28T16:59:40;23.15;67.57
71839;SHT31;59687;37.520;15.068;2022-09-28T17:02:20;23.07;68.04
71839;SHT31;59687;37.520;15.068;2022-09-28T17:05:11;23.00;68.49
71839;SHT31;59687;37.520;15.068;2022-09-28T17:07:39;22.95;68.61
71839;SHT31;59687;37.520;15.068;2022-09-28T17:13:07;22.83;68.99
71839;SHT31;59687;37.520;15.068;2022-09-28T17:15:37;22.77;68.89
71839;SHT31;59687;37.520;15.068;2022-09-28T17:18:05;22.79;68.69
71839;SHT31;59687;37.520;15.068;2022-09-28T17:20:33;22.69;68.87
71839;SHT31;59687;37.520;15.068;2022-09-28T17:23:03;22.68;69.32
71839;SHT31;59687;37.520;15.068;2022-09-28T17:25:34;22.65;69.40
71839;SHT31;59687;37.520;15.068;2022-09-28T17:28:03;22.68;69.05
71839;SHT31;59687;37.520;15.068;2022-09-28T17:30:33;22.63;69.09
71839;SHT31;59687;37.520;15.068;2022-09-28T17:33:00;22.59;69.14
71839;SHT31;59687;37.520;15.068;2022-09-28T17:35:28;22.56;68.86
71839;SHT31;59687;37.520;15.068;2022-09-28T17:37:55;22.48;69.22
71839;SHT31;59687;37.520;15.068;2022-09-28T17:40:25;22.45;69.41
71839;SHT31;59687;37.520;15.068;2022-09-28T17:42:55;22.43;69.78
71839;SHT31;59687;37.520;15.068;2022-09-28T17:45:25;22.44;69.78
71839;SHT31;59687;37.520;15.068;2022-09-28T17:47:54;22.44;69.69
71839;SHT31;59687;37.520;15.068;2022-09-28T17:50:24;22.38;69.56
71839;SHT31;59687;37.520;15.068;2022-09-28T17:52:52;22.35;69.67
71839;SHT31;59687;37.520;15.068;2022-09-28T17:55:20;22.33;69.76
71839;SHT31;59687;37.520;15.068;2022-09-28T17:57:48;22.25;70.04
71839;SHT31;59687;37.520;15.068;2022-09-28T18:00:16;22.25;70.00
71839;SHT31;59687;37.520;15.068;2022-09-28T18:02:44;22.21;70.15
71839;SHT31;59687;37.520;15.068;2022-09-28T18:05:15;22.17;70.32
71839;SHT31;59687;37.520;15.068;2022-09-28T18:07:42;22.17;70.38
71839;SHT31;59687;37.520;15.068;2022-09-28T18:10:18;22.17;70.25
71839;SHT31;59687;37.520;15.068;2022-09-28T18:12:48;22.21;70.24
71839;SHT31;59687;37.520;15.068;2022-09-28T18:15:16;22.24;69.86
71839;SHT31;59687;37.520;15.068;2022-09-28T18:17:44;22.31;69.56
71839;SHT31;59687;37.520;15.068;2022-09-28T18:20:11;22.35;68.80
71839;SHT31;59687;37.520;15.068;2022-09-28T18:22:39;22.37;68.35
71839;SHT31;59687;37.520;15.068;2022-09-28T18:25:06;22.40;68.37
71839;SHT31;59687;37.520;15.068;2022-09-28T18:27:36;22.45;68.97
71839;SHT31;59687;37.520;15.068;2022-09-28T18:30:06;22.45;68.96
71839;SHT31;59687;37.520;15.068;2022-09-28T18:32:35;22.41;69.04
71839;SHT31;59687;37.520;15.068;2022-09-28T18:35:04;22.34;69.27
71839;SHT31;59687;37.520;15.068;2022-09-28T18:37:38;22.35;69.46
71839;SHT31;59687;37.520;15.068;2022-09-28T18:40:10;22.34;69.42
71839;SHT31;59687;37.520;15.068;2022-09-28T18:42:40;22.63;69.83
71839;SHT31;59687;37.520;15.068;2022-09-28T18:45:08;22.68;69.59
71839;SHT31;59687;37.520;15.068;2022-09-28T18:47:38;22.55;70.00
71839;SHT31;59687;37.520;15.068;2022-09-28T18:50:06;22.43;70.41